Time;durP1;ratioP1;P1;durP2;ratioP2;P2;SDS_P1;SDS_P2;PMS_P1;PMS_P2;Temp;Humidity;BMP_temperature;BMP_pressure;BME280_temperature;BME280_humidity;BME280_pressure;Samples;Min_cycle;Max_cycle;Signal;HPM_P1;HPM_P2
2022/01/21 00:01:13;;;;;;;13.45;3.85;;;;;;;2.56;55.63;100055.94;4368724;32;35624;-68
2022/01/21 00:03:42;;;;;;;10.75;3.67;;;;;;;2.26;56.73;100068.56;4372176;32;33864;-68
2022/01/21 00:06:10;;;;;;;6.68;2.60;;;;;;;2.23;57.14;100058.22;4373598;32;34308;-67
2022/01/21 00:08:40;;;;;;;6.30;2.53;;;;;;;2.03;57.34;100045.44;4372177;32;34500;-68
2022/01/21 00:11:09;;;;;;;6.45;2.47;;;;;;;2.58;55.76;100056.56;4371805;32;34241;-68
2022/01/21 00:13:37;;;;;;;6.10;2.70;;;;;;;2.36;56.98;100061.06;4369958;32;34738;-68
2022/01/21 00:16:10;;;;;;;7.82;3.47;;;;;;;2.14;57.67;100067.34;4372357;32;33370;-67
2022/01/21 00:18:41;;;;;;;4.68;2.45;;;;;;;1.97;58.49;100066.75;4370568;32;34718;-68
2022/01/21 00:32:14;;;;;;;4.32;2.00;;;;;;;1.95;58.01;100076.81;4380969;32;34712;-69
2022/01/21 00:34:41;;;;;;;4.53;1.95;;;;;;;2.02;58.18;100075.84;4380648;32;34387;-69
2022/01/21 00:37:09;;;;;;;1.00;0.95;;;;;;;1.79;58.44;100072.44;4381060;32;33801;-67
2022/01/21 00:39:37;;;;;;;3.58;1.83;;;;;;;2.47;56.01;100054.41;4380607;32;34638;-68
2022/01/21 00:42:13;;;;;;;3.42;1.80;;;;;;;2.05;57.37;100050.56;4380742;32;34368;-68
2022/01/21 00:44:40;;;;;;;0.40;0.40;;;;;;;2.00;57.62;100053.81;4377704;32;78385;-68
2022/01/21 00:47:08;;;;;;;0.40;0.40;;;;;;;2.29;56.79;100054.81;4379979;32;34554;-68
2022/01/21 00:49:35;;;;;;;3.37;1.58;;;;;;;2.31;56.01;100054.59;4381035;32;34018;-68
2022/01/21 00:52:03;;;;;;;3.17;1.80;;;;;;;2.09;56.92;100053.72;4380527;32;33963;-68
2022/01/21 00:54:30;;;;;;;5.47;2.00;;;;;;;2.10;56.52;100045.50;4380332;32;33882;-68
2022/01/21 00:56:58;;;;;;;0.50;0.50;;;;;;;2.10;56.69;100047.37;4380727;32;34550;-67
2022/01/21 00:59:25;;;;;;;0.85;0.85;;;;;;;2.29;56.66;100070.03;4380592;32;34873;-68
2022/01/21 01:01:53;;;;;;;0.40;0.40;;;;;;;2.24;56.66;100076.75;4380353;32;35065;-67
2022/01/21 01:04:21;;;;;;;3.62;1.45;;;;;;;2.50;56.36;100075.44;4380286;32;34287;-69
2022/01/21 01:06:48;;;;;;;4.07;1.80;;;;;;;1.49;58.82;100069.75;4380538;32;33802;-68
2022/01/21 01:09:16;;;;;;;2.28;1.23;;;;;;;1.58;58.61;100082.03;4379296;32;34032;-70
2022/01/21 01:20:15;;;;;;;2.37;1.23;;;;;;;1.13;59.45;100078.41;4377683;32;34082;-68
2022/01/21 01:27:58;;;;;;;2.87;1.37;;;;;;;0.97;60.00;100084.72;4377510;32;34335;-67
2022/01/21 01:30:28;;;;;;;2.45;1.08;;;;;;;1.43;58.65;100087.34;4377849;32;33976;-69
2022/01/21 01:32:58;;;;;;;2.85;1.58;;;;;;;1.48;59.06;100092.13;4377387;32;34206;-69
2022/01/21 01:35:30;;;;;;;1.40;0.98;;;;;;;1.72;58.13;100080.38;4377278;32;35387;-69
2022/01/21 01:40:42;;;;;;;1.30;1.00;;;;;;;1.34;59.31;100091.09;4377392;32;33960;-68
2022/01/21 01:51:33;;;;;;;2.00;1.02;;;;;;;1.71;58.71;100108.16;4377578;32;34823;-68
2022/01/21 01:54:11;;;;;;;0.40;0.40;;;;;;;1.38;60.00;100107.59;4375761;32;34209;-68
2022/01/21 01:56:47;;;;;;;2.65;1.20;;;;;;;1.39;60.99;100110.09;4377667;32;33783;-69
2022/01/21 01:59:15;;;;;;;3.03;1.20;;;;;;;1.35;61.45;100114.13;4377529;32;33491;-67
2022/01/21 02:01:43;;;;;;;2.78;1.40;;;;;;;0.30;65.12;100113.78;4377144;32;34062;-69
2022/01/21 02:04:10;;;;;;;1.48;1.20;;;;;;;0.85;63.68;100122.69;4375733;32;34463;-68
2022/01/21 02:06:38;;;;;;;0.40;0.40;;;;;;;1.10;62.92;100118.00;4377617;32;34257;-68
2022/01/21 02:09:05;;;;;;;4.22;1.50;;;;;;;1.62;61.60;100120.78;4377360;32;34656;-69
2022/01/21 02:11:33;;;;;;;3.25;1.33;;;;;;;1.29;62.50;100120.19;4377340;32;34384;-68
2022/01/21 02:14:06;;;;;;;2.33;1.20;;;;;;;1.27;62.97;100116.06;4377004;32;35208;-68
2022/01/21 02:16:42;;;;;;;0.40;0.40;;;;;;;1.16;63.46;100125.31;4377179;32;33917;-68
2022/01/21 02:21:55;;;;;;;0.40;0.40;;;;;;;1.21;63.37;100120.28;4377263;32;33855;-68
2022/01/21 02:24:31;;;;;;;4.62;1.25;;;;;;;1.09;64.13;100117.19;4376672;32;34304;-68
2022/01/21 02:26:59;;;;;;;2.47;1.15;;;;;;;0.59;65.41;100102.47;4377198;32;34933;-68
2022/01/21 02:29:30;;;;;;;0.40;0.40;;;;;;;1.30;62.95;100083.63;4377193;32;34494;-68
2022/01/21 02:31:59;;;;;;;3.05;1.20;;;;;;;1.70;62.14;100086.91;4377422;32;34726;-68
2022/01/21 02:34:27;;;;;;;0.40;0.40;;;;;;;1.27;62.62;100100.00;4377009;32;35095;-68
2022/01/21 02:36:55;;;;;;;1.40;1.00;;;;;;;1.67;61.87;100098.81;4377426;32;33857;-67
2022/01/21 02:39:22;;;;;;;0.50;0.50;;;;;;;1.69;61.30;100094.13;4377140;32;33733;-68
2022/01/21 02:41:50;;;;;;;2.87;1.27;;;;;;;2.00;60.39;100093.94;4377171;32;33473;-68
2022/01/21 02:44:18;;;;;;;0.40;0.40;;;;;;;1.61;61.63;100083.50;4376879;32;33846;-68
2022/01/21 02:46:48;;;;;;;4.28;1.10;;;;;;;1.63;61.08;100068.09;4377061;32;35033;-68
2022/01/21 02:49:17;;;;;;;0.50;0.50;;;;;;;1.78;60.89;100065.44;4377559;32;34546;-69
2022/01/21 02:51:44;;;;;;;3.12;1.27;;;;;;;1.55;61.49;100079.69;4376991;32;33884;-68
2022/01/21 02:54:11;;;;;;;3.25;1.25;;;;;;;1.62;61.30;100091.34;4376648;32;35335;-68
2022/01/21 02:56:40;;;;;;;2.10;1.42;;;;;;;1.51;61.25;100102.50;4377216;32;35056;-69
2022/01/21 02:59:10;;;;;;;2.05;1.17;;;;;;;1.56;61.48;100094.75;4377526;32;33671;-68
2022/01/21 03:01:40;;;;;;;0.50;0.50;;;;;;;1.72;60.70;100088.41;4376963;32;33951;-68
2022/01/21 03:04:14;;;;;;;0.40;0.40;;;;;;;1.47;61.31;100086.97;4376897;32;35216;-70
2022/01/21 03:06:42;;;;;;;3.62;1.30;;;;;;;1.41;61.76;100084.00;4377532;32;34227;-68
2022/01/21 03:09:09;;;;;;;2.50;1.50;;;;;;;1.14;62.39;100101.44;4377398;32;35126;-68
2022/01/21 03:11:37;;;;;;;2.90;1.37;;;;;;;0.85;63.83;100101.34;4377023;32;34212;-68
2022/01/21 03:14:04;;;;;;;3.80;1.70;;;;;;;1.01;63.34;100107.38;4376722;32;34265;-67
2022/01/21 03:16:32;;;;;;;0.50;0.50;;;;;;;0.78;63.73;100104.72;4375804;32;35033;-69
2022/01/21 03:19:00;;;;;;;3.40;2.00;;;;;;;0.93;63.84;100107.44;4376989;32;34852;-68
2022/01/21 03:21:28;;;;;;;0.40;0.40;;;;;;;0.79;64.41;100105.53;4376283;32;33991;-68
2022/01/21 03:23:56;;;;;;;3.37;1.80;;;;;;;1.06;63.74;100111.34;4376616;32;35115;-68
2022/01/21 03:26:25;;;;;;;3.65;2.12;;;;;;;0.84;64.21;100115.69;4377119;32;35060;-68
2022/01/21 03:28:56;;;;;;;3.78;1.60;;;;;;;0.85;64.46;100123.53;4376987;32;33533;-68
2022/01/21 03:31:24;;;;;;;4.53;2.00;;;;;;;0.68;65.08;100128.13;4377011;32;34063;-68
2022/01/21 03:33:52;;;;;;;2.78;1.50;;;;;;;0.92;63.87;100135.16;4375285;32;34012;-68
2022/01/21 03:36:21;;;;;;;2.70;1.30;;;;;;;0.77;64.69;100139.59;4375689;32;34172;-69
2022/01/21 03:38:49;;;;;;;4.37;1.80;;;;;;;0.74;64.57;100132.78;4377164;32;33427;-68
2022/01/21 03:41:17;;;;;;;3.78;2.00;;;;;;;1.05;63.38;100137.25;4376853;32;34505;-68
2022/01/21 03:43:44;;;;;;;4.20;1.50;;;;;;;0.80;63.91;100137.41;4376124;32;35182;-68
2022/01/21 03:46:13;;;;;;;0.90;0.85;;;;;;;0.52;64.54;100134.38;4375219;32;35016;-68
2022/01/21 03:48:40;;;;;;;1.75;1.10;;;;;;;0.59;63.98;100135.34;4376642;32;33877;-68
2022/01/21 03:51:08;;;;;;;0.50;0.50;;;;;;;1.03;62.42;100126.72;4376498;32;34784;-69
2022/01/21 03:53:35;;;;;;;0.50;0.50;;;;;;;0.89;62.72;100127.50;4376114;32;35176;-67
2022/01/21 03:56:03;;;;;;;0.47;0.47;;;;;;;1.04;62.85;100130.25;4376639;32;33716;-67
2022/01/21 03:58:30;;;;;;;4.30;1.60;;;;;;;1.07;62.65;100118.37;4376690;32;33972;-68
2022/01/21 04:00:58;;;;;;;1.85;1.20;;;;;;;0.87;63.24;100126.03;4376539;32;34241;-68
2022/01/21 04:03:27;;;;;;;3.30;1.58;;;;;;;1.15;61.96;100135.19;4376485;32;34209;-68
2022/01/21 04:05:55;;;;;;;4.30;1.60;;;;;;;0.18;64.93;100132.84;4376387;32;35091;-68
2022/01/21 04:08:22;;;;;;;4.50;2.05;;;;;;;0.35;63.83;100132.78;4376791;32;34391;-69
2022/01/21 04:10:51;;;;;;;1.12;1.02;;;;;;;0.61;62.50;100121.81;4376548;32;33579;-69
2022/01/21 04:13:20;;;;;;;3.87;1.85;;;;;;;0.59;61.75;100121.16;4376272;32;34935;-67
2022/01/21 04:15:51;;;;;;;2.75;1.70;;;;;;;0.54;61.39;100127.03;4376502;32;33898;-68
2022/01/21 04:18:19;;;;;;;2.50;1.45;;;;;;;0.35;61.27;100114.13;4376003;32;34471;-68
2022/01/21 04:20:48;;;;;;;3.28;1.40;;;;;;;0.34;61.19;100110.59;4376512;32;33785;-68
2022/01/21 04:23:16;;;;;;;2.90;1.20;;;;;;;-0.15;62.23;100121.44;4375950;32;34344;-68
2022/01/21 04:25:44;;;;;;;1.92;1.23;;;;;;;-0.39;62.68;100132.13;4376080;32;34943;-68
2022/01/21 04:28:12;;;;;;;0.50;0.50;;;;;;;-0.45;62.58;100130.97;4376484;32;33797;-69
2022/01/21 04:30:40;;;;;;;0.50;0.50;;;;;;;-0.36;62.36;100132.63;4376283;32;33741;-70
2022/01/21 04:33:08;;;;;;;2.58;1.12;;;;;;;-0.30;61.65;100144.44;4375988;32;34774;-72
2022/01/21 04:35:36;;;;;;;4.20;1.55;;;;;;;0.19;60.74;100141.66;4374655;32;34212;-68
2022/01/21 04:38:07;;;;;;;0.52;0.50;;;;;;;-0.68;62.99;100150.28;4376198;32;33720;-77
2022/01/21 04:40:42;;;;;;;1.77;1.30;;;;;;;-0.28;61.71;100150.44;4374962;32;33617;-68
2022/01/21 04:48:43;;;;;;;0.40;0.40;;;;;;;-0.49;62.32;100158.97;4377709;32;34545;-68
2022/01/21 04:53:39;;;;;;;3.40;1.30;;;;;;;-0.55;62.33;100178.28;4377620;32;34341;-68
2022/01/21 04:56:09;;;;;;;0.50;0.50;;;;;;;-0.79;62.64;100173.78;4378012;32;33928;-67
2022/01/21 04:58:38;;;;;;;5.03;1.55;;;;;;;-0.41;61.68;100174.97;4377891;32;33318;-68
2022/01/21 05:01:06;;;;;;;2.65;1.25;;;;;;;-0.39;61.46;100182.78;4377723;32;34861;-68
2022/01/21 05:03:37;;;;;;;2.28;1.58;;;;;;;-0.28;60.78;100190.44;4377428;32;35041;-68
2022/01/21 05:06:05;;;;;;;0.50;0.50;;;;;;;-0.27;60.54;100186.78;4377826;32;33885;-68
2022/01/21 05:08:43;;;;;;;3.53;1.80;;;;;;;-0.71;62.45;100184.44;4377791;32;33514;-68
2022/01/21 05:11:12;;;;;;;2.40;1.50;;;;;;;-0.87;63.19;100202.03;4377520;32;34896;-69
2022/01/21 05:13:51;;;;;;;2.53;1.40;;;;;;;-0.11;60.28;100193.91;4376140;32;35172;-68
2022/01/21 05:18:57;;;;;;;0.77;0.50;;;;;;;-0.57;61.59;100198.94;4377820;32;33479;-69
2022/01/21 05:21:25;;;;;;;2.72;1.50;;;;;;;-0.38;60.49;100209.28;4376666;32;33605;-67
2022/01/21 05:23:52;;;;;;;0.50;0.50;;;;;;;-0.73;61.70;100213.91;4377355;32;34989;-68
2022/01/21 05:26:20;;;;;;;3.17;1.80;;;;;;;-0.66;61.04;100216.75;4377747;32;34014;-69
2022/01/21 05:28:48;;;;;;;0.50;0.50;;;;;;;-0.62;60.94;100218.91;4377943;32;33391;-67
2022/01/21 05:31:16;;;;;;;0.60;0.60;;;;;;;-0.76;61.20;100222.22;4366371;32;33467;-67
2022/01/21 05:33:43;;;;;;;1.62;1.52;;;;;;;-0.92;61.50;100216.87;4362163;32;35167;-68
2022/01/21 05:36:12;;;;;;;5.20;2.00;;;;;;;-0.47;60.77;100228.94;4362746;32;34302;-67
2022/01/21 05:38:41;;;;;;;4.55;2.00;;;;;;;-0.62;60.55;100220.75;4363068;32;34602;-67
2022/01/21 05:41:08;;;;;;;3.12;1.67;;;;;;;-0.56;60.34;100208.59;4362818;32;33964;-68
2022/01/21 05:43:37;;;;;;;0.50;0.50;;;;;;;-0.91;61.77;100215.84;4362087;32;33549;-69
2022/01/21 05:48:54;;;;;;;2.58;1.73;;;;;;;-0.92;62.14;100214.19;4363512;32;33800;-69
2022/01/21 05:51:26;;;;;;;3.17;1.70;;;;;;;-1.07;62.36;100236.13;4363456;32;34862;-67
2022/01/21 05:53:54;;;;;;;0.43;0.43;;;;;;;-1.09;62.83;100226.63;4363670;32;34132;-67
2022/01/21 05:56:24;;;;;;;0.50;0.50;;;;;;;-0.83;62.09;100245.19;4363196;32;33947;-67
2022/01/21 05:58:52;;;;;;;3.35;2.05;;;;;;;-0.82;61.81;100252.19;4362709;32;34507;-67
2022/01/21 06:01:20;;;;;;;5.32;2.33;;;;;;;-1.12;63.00;100256.25;4361882;32;34332;-66
2022/01/21 06:03:49;;;;;;;6.55;3.08;;;;;;;-0.77;61.72;100255.19;4362934;32;34100;-66
2022/01/21 06:06:16;;;;;;;4.53;2.20;;;;;;;-0.64;61.26;100265.38;4362051;32;35018;-66
2022/01/21 06:08:44;;;;;;;0.80;0.80;;;;;;;-0.66;61.34;100270.03;4363661;32;33588;-68
2022/01/21 06:11:11;;;;;;;0.60;0.60;;;;;;;-0.99;61.84;100285.94;4361033;32;33828;-69
2022/01/21 06:13:39;;;;;;;5.30;2.00;;;;;;;-0.97;62.29;100289.28;4363184;32;33922;-68
2022/01/21 06:16:06;;;;;;;0.50;0.50;;;;;;;-0.72;61.36;100297.34;4362932;32;35034;-68
2022/01/21 06:18:34;;;;;;;5.62;3.17;;;;;;;-0.82;61.38;100308.16;4362889;32;34952;-66
2022/01/21 06:21:01;;;;;;;3.65;1.95;;;;;;;-0.87;61.77;100308.59;4362956;32;34075;-67
2022/01/21 06:23:29;;;;;;;3.55;1.73;;;;;;;-0.59;59.91;100318.19;4363494;32;34154;-68
2022/01/21 06:25:56;;;;;;;0.50;0.50;;;;;;;-0.54;60.43;100321.19;4363073;32;33988;-68
2022/01/21 06:28:24;;;;;;;4.03;2.20;;;;;;;-0.57;60.52;100334.84;4363240;32;33492;-69
2022/01/21 06:30:52;;;;;;;0.90;0.55;;;;;;;-0.52;60.05;100340.53;4362743;32;34016;-67
2022/01/21 06:33:23;;;;;;;1.67;0.95;;;;;;;-0.79;61.03;100331.78;4363048;32;34662;-68
2022/01/21 06:35:50;;;;;;;4.32;2.45;;;;;;;-0.50;60.76;100341.19;4363110;32;34357;-69
2022/01/21 06:38:19;;;;;;;3.15;2.05;;;;;;;-0.82;61.87;100342.78;4362847;32;34562;-68
2022/01/21 06:40:48;;;;;;;2.00;1.15;;;;;;;-0.98;61.82;100348.03;4362905;32;33843;-70
2022/01/21 06:43:16;;;;;;;0.50;0.50;;;;;;;-0.77;61.46;100350.28;4363065;32;34299;-68
2022/01/21 06:45:43;;;;;;;3.33;2.35;;;;;;;-0.36;60.37;100353.09;4362401;32;33931;-68
2022/01/21 06:48:11;;;;;;;0.40;0.40;;;;;;;-0.40;60.22;100347.22;4363067;32;33753;-68
2022/01/21 06:50:40;;;;;;;0.50;0.50;;;;;;;-0.53;60.45;100360.19;4363152;32;34822;-68
2022/01/21 06:53:08;;;;;;;0.70;0.50;;;;;;;-0.52;60.54;100361.84;4353815;32;33813;-75
2022/01/21 06:55:54;;;;;;;4.37;2.25;;;;;;;-0.77;60.84;100368.94;4336514;33;34123;-74
2022/01/21 06:58:21;;;;;;;5.93;2.30;;;;;;;-0.85;60.91;100367.88;4342512;32;33663;-72
2022/01/21 07:00:48;;;;;;;3.53;1.70;;;;;;;-0.96;61.39;100378.81;4343846;33;34777;-73
2022/01/21 07:03:16;;;;;;;0.50;0.50;;;;;;;-0.75;60.77;100385.59;4346606;33;34254;-74
2022/01/21 07:05:46;;;;;;;5.32;2.50;;;;;;;-0.72;60.15;100390.59;4345706;33;33788;-73
2022/01/21 07:08:15;;;;;;;5.40;2.65;;;;;;;-1.23;61.62;100385.16;4346987;33;33511;-75
2022/01/21 07:10:44;;;;;;;5.25;2.95;;;;;;;-1.04;61.80;100400.06;4332308;33;33629;-73
2022/01/21 07:13:12;;;;;;;1.40;0.93;;;;;;;-0.87;60.45;100407.16;4346539;33;35073;-74
2022/01/21 07:15:39;;;;;;;0.50;0.50;;;;;;;-0.40;59.47;100407.72;4346943;33;34109;-73
2022/01/21 07:18:07;;;;;;;1.85;0.65;;;;;;;-0.89;60.75;100419.81;4346754;33;33881;-72
2022/01/21 07:20:35;;;;;;;0.77;0.77;;;;;;;-0.91;61.09;100426.28;4339605;32;33929;-69
2022/01/21 07:23:02;;;;;;;0.50;0.50;;;;;;;-0.47;59.67;100423.53;4360144;32;34134;-69
2022/01/21 07:25:30;;;;;;;3.75;1.95;;;;;;;-0.11;58.98;100425.97;4348190;32;33985;-70
2022/01/21 07:27:57;;;;;;;4.70;2.17;;;;;;;0.17;57.28;100427.37;4361190;32;34586;-69
2022/01/21 07:30:25;;;;;;;0.73;0.60;;;;;;;-0.06;58.04;100427.16;4361629;32;34767;-69
2022/01/21 07:32:54;;;;;;;5.75;2.50;;;;;;;-0.07;58.30;100433.47;4355239;32;34656;-71
2022/01/21 07:35:21;;;;;;;0.57;0.50;;;;;;;0.34;57.03;100428.22;4361142;32;33607;-76
2022/01/21 07:38:09;;;;;;;11.48;7.07;;;;;;;0.86;55.17;100420.88;4361432;32;34205;-69
2022/01/21 07:40:37;;;;;;;6.10;3.10;;;;;;;0.85;55.03;100419.22;4361345;32;33971;-70
2022/01/21 07:43:04;;;;;;;7.12;3.55;;;;;;;0.70;55.80;100409.19;4347448;32;34279;-68
2022/01/21 07:45:32;;;;;;;6.72;2.97;;;;;;;0.90;55.44;100404.31;4361099;32;34169;-69
2022/01/21 07:48:00;;;;;;;5.65;3.17;;;;;;;0.79;54.53;100408.19;4347325;32;33511;-69
2022/01/21 07:50:32;;;;;;;4.75;2.28;;;;;;;0.14;56.24;100395.66;4360760;32;33804;-70
2022/01/21 07:53:00;;;;;;;5.18;2.95;;;;;;;0.43;55.51;100401.53;4361090;32;35033;-70
2022/01/21 07:55:28;;;;;;;4.87;2.30;;;;;;;0.90;53.29;100393.63;4361227;32;35052;-69
2022/01/21 07:57:55;;;;;;;3.72;2.12;;;;;;;-0.30;57.67;100408.41;4347232;32;33238;-70
2022/01/21 08:00:23;;;;;;;0.50;0.50;;;;;;;0.27;55.62;100402.38;4360480;32;34106;-69
2022/01/21 08:02:53;;;;;;;4.32;2.75;;;;;;;0.03;55.37;100411.16;4360837;32;34747;-68
2022/01/21 08:05:21;;;;;;;0.57;0.55;;;;;;;0.19;54.85;100416.53;4361328;32;34171;-70
2022/01/21 08:07:48;;;;;;;0.62;0.60;;;;;;;0.65;53.52;100424.03;4360881;32;33637;-69
2022/01/21 08:10:16;;;;;;;0.40;0.40;;;;;;;0.01;55.89;100419.34;4357049;32;33983;-69
2022/01/21 08:12:43;;;;;;;0.40;0.40;;;;;;;-0.01;55.58;100421.31;4343136;33;34061;-70
2022/01/21 08:15:11;;;;;;;6.10;2.25;;;;;;;0.91;53.18;100421.22;4332389;33;35028;-69
2022/01/21 08:17:38;;;;;;;0.40;0.40;;;;;;;1.33;51.17;100423.59;4332086;33;34518;-71
2022/01/21 08:20:06;;;;;;;4.45;1.58;;;;;;;1.74;50.16;100422.59;4317712;33;34472;-70
2022/01/21 08:22:34;;;;;;;3.45;1.73;;;;;;;1.17;51.31;100400.44;4332979;33;35080;-72
2022/01/21 08:25:01;;;;;;;2.87;1.48;;;;;;;0.98;51.03;100382.09;4322158;32;33973;-70
2022/01/21 08:27:29;;;;;;;3.50;1.60;;;;;;;1.05;51.17;100387.59;4363856;32;33646;-69
2022/01/21 08:29:56;;;;;;;4.47;2.50;;;;;;;0.34;52.58;100388.16;4363627;32;34815;-70
2022/01/21 08:32:24;;;;;;;2.75;1.33;;;;;;;0.86;51.83;100394.16;4363115;32;34788;-69
2022/01/21 08:34:51;;;;;;;4.57;1.60;;;;;;;1.26;50.65;100377.19;4362437;32;35241;-70
2022/01/21 08:37:19;;;;;;;0.40;0.40;;;;;;;1.31;51.29;100390.03;4363331;32;33670;-70
2022/01/21 08:39:47;;;;;;;3.80;1.70;;;;;;;1.07;51.22;100393.63;4363963;32;33758;-69
2022/01/21 08:42:14;;;;;;;2.37;1.50;;;;;;;0.61;52.99;100403.03;4363677;32;34833;-70
2022/01/21 08:44:42;;;;;;;2.70;1.20;;;;;;;1.18;50.89;100403.94;4363524;32;34308;-71
2022/01/21 08:47:10;;;;;;;4.70;3.37;;;;;;;0.69;52.66;100412.88;4363661;32;33666;-70
2022/01/21 08:49:39;;;;;;;0.40;0.40;;;;;;;1.36;50.15;100412.56;4363809;32;33874;-70
2022/01/21 08:52:07;;;;;;;0.57;0.57;;;;;;;1.99;49.42;100431.34;4359757;32;34966;-71
2022/01/21 08:54:35;;;;;;;4.55;2.05;;;;;;;1.40;50.63;100423.75;4363573;32;35058;-71
2022/01/21 08:57:03;;;;;;;0.40;0.40;;;;;;;1.69;49.46;100436.50;4364061;32;33639;-71
2022/01/21 08:59:31;;;;;;;2.85;1.40;;;;;;;1.93;48.60;100443.56;4363583;32;34661;-71
2022/01/21 09:01:59;;;;;;;3.05;1.50;;;;;;;1.92;49.08;100455.28;4356573;32;35107;-73
2022/01/21 09:04:27;;;;;;;0.40;0.40;;;;;;;1.51;49.03;100449.28;4348838;33;34902;-73
2022/01/21 09:06:55;;;;;;;0.50;0.50;;;;;;;2.23;47.12;100455.28;4348560;33;33627;-76
2022/01/21 09:09:23;;;;;;;4.93;1.30;;;;;;;2.98;46.15;100448.34;4335455;33;34923;-74
2022/01/21 09:11:53;;;;;;;2.33;1.40;;;;;;;2.60;46.61;100467.06;4348775;33;34157;-73
2022/01/21 09:14:20;;;;;;;3.05;1.40;;;;;;;3.07;45.50;100466.00;4348531;33;34070;-72
2022/01/21 09:16:48;;;;;;;2.00;1.30;;;;;;;2.31;46.93;100469.62;4348637;33;34171;-79
2022/01/21 09:19:15;;;;;;;0.40;0.40;;;;;;;2.42;46.97;100470.06;4348995;33;34113;-73
2022/01/21 09:21:44;;;;;;;3.00;1.55;;;;;;;1.60;48.54;100477.69;4348315;33;34960;-72
2022/01/21 09:24:12;;;;;;;4.30;1.75;;;;;;;1.48;48.66;100465.69;4348590;33;34172;-71
2022/01/21 09:26:39;;;;;;;2.05;1.35;;;;;;;2.34;46.82;100469.28;4348888;33;34687;-68
2022/01/21 09:29:07;;;;;;;3.17;1.83;;;;;;;2.36;47.14;100478.81;4348692;33;33584;-69
2022/01/21 09:31:34;;;;;;;3.05;1.37;;;;;;;2.70;45.99;100484.75;4348206;33;34430;-76
2022/01/21 09:34:24;;;;;;;0.50;0.50;;;;;;;2.73;46.00;100485.22;4347596;33;33875;-73
2022/01/21 09:36:53;;;;;;;2.50;1.65;;;;;;;2.56;46.26;100484.53;4335466;33;33732;-74
2022/01/21 09:39:21;;;;;;;2.85;1.67;;;;;;;3.09;45.45;100481.94;4348440;33;33953;-71
2022/01/21 09:41:48;;;;;;;3.75;1.73;;;;;;;3.26;44.88;100475.38;4348597;33;34171;-70
2022/01/21 09:44:19;;;;;;;2.87;1.48;;;;;;;2.88;45.54;100479.94;4348790;32;34874;-75
2022/01/21 09:46:50;;;;;;;4.80;1.62;;;;;;;2.56;45.76;100478.34;4362097;32;34357;-71
2022/01/21 09:51:50;;;;;;;2.30;0.60;;;;;;;2.16;47.91;100467.72;4363409;32;34310;-71
2022/01/21 09:54:18;;;;;;;5.53;1.60;;;;;;;1.50;48.97;100464.50;4362962;32;34126;-70
2022/01/21 09:56:47;;;;;;;4.40;1.70;;;;;;;2.30;48.11;100476.00;4362224;32;34608;-71
2022/01/21 09:59:19;;;;;;;3.78;2.25;;;;;;;2.60;47.12;100482.31;4362080;32;33941;-72
2022/01/21 10:01:52;;;;;;;5.35;2.17;;;;;;;2.94;46.27;100483.72;4361993;32;34610;-71
2022/01/21 10:04:23;;;;;;;5.82;1.83;;;;;;;3.39;46.08;100476.59;4363319;32;35078;-70
2022/01/21 10:06:51;;;;;;;7.05;3.22;;;;;;;3.08;46.10;100478.38;4361926;32;33640;-70
2022/01/21 10:09:20;;;;;;;3.92;2.00;;;;;;;2.17;47.86;100472.06;4363334;32;34862;-71
2022/01/21 10:11:50;;;;;;;3.95;2.03;;;;;;;2.76;47.55;100465.28;4363202;32;34586;-70
2022/01/21 10:14:21;;;;;;;4.43;2.33;;;;;;;2.78;46.87;100463.25;4361748;32;34154;-70
2022/01/21 10:16:50;;;;;;;3.97;2.35;;;;;;;2.74;48.46;100461.94;4363147;32;33740;-70
2022/01/21 10:19:27;;;;;;;0.40;0.40;;;;;;;2.75;47.49;100469.00;4363138;32;34804;-70
2022/01/21 10:22:06;;;;;;;5.30;2.50;;;;;;;2.08;46.96;100473.12;4361509;32;34015;-71
2022/01/21 10:24:37;;;;;;;5.95;2.25;;;;;;;1.90;49.84;100477.87;4361918;32;33583;-71
2022/01/21 10:27:04;;;;;;;0.45;0.45;;;;;;;2.55;48.74;100472.16;4363269;32;33782;-71
2022/01/21 10:29:40;;;;;;;15.02;5.10;;;;;;;2.86;47.70;100464.03;4363308;32;33887;-72
2022/01/21 10:32:08;;;;;;;7.65;3.80;;;;;;;2.98;47.54;100471.63;4362982;32;34667;-70
2022/01/21 10:34:42;;;;;;;3.35;2.03;;;;;;;3.57;46.47;100470.87;4363156;32;34009;-72
2022/01/21 10:37:23;;;;;;;3.12;1.95;;;;;;;2.85;46.70;100461.50;4363273;32;33829;-71
2022/01/21 10:40:02;;;;;;;0.40;0.40;;;;;;;3.36;46.12;100467.06;4362160;32;33874;-72
2022/01/21 10:42:30;;;;;;;4.28;1.90;;;;;;;2.39;48.28;100467.72;4362955;32;34294;-71
2022/01/21 10:44:59;;;;;;;0.40;0.40;;;;;;;2.02;49.61;100473.81;4363109;32;35070;-72
2022/01/21 10:47:30;;;;;;;6.80;2.60;;;;;;;1.69;51.18;100476.63;4363113;32;33688;-72
2022/01/21 10:50:09;;;;;;;0.40;0.40;;;;;;;1.90;51.18;100483.22;4363016;32;33707;-72
2022/01/21 10:52:39;;;;;;;7.37;3.60;;;;;;;1.37;52.10;100478.41;4363115;32;34955;-72
2022/01/21 10:55:32;;;;;;;4.60;2.35;;;;;;;1.62;51.86;100486.34;4360861;32;34974;-70
2022/01/21 10:58:13;;;;;;;0.50;0.50;;;;;;;1.82;52.12;100486.78;4363111;32;33649;-71
2022/01/21 11:01:00;;;;;;;0.50;0.50;;;;;;;1.93;50.25;100474.87;4363106;32;33820;-71
2022/01/21 11:03:29;;;;;;;0.40;0.40;;;;;;;1.61;51.88;100487.34;4362992;32;34986;-69
2022/01/21 11:06:22;;;;;;;3.80;2.08;;;;;;;1.61;51.65;100476.66;4361806;32;34605;-70
2022/01/21 11:08:50;;;;;;;0.55;0.50;;;;;;;1.45;52.14;100488.25;4362920;32;34282;-69
2022/01/21 11:11:22;;;;;;;0.57;0.57;;;;;;;1.79;51.27;100474.59;4363060;32;34018;-69
2022/01/21 11:13:49;;;;;;;7.93;2.58;;;;;;;1.54;51.47;100484.53;4361675;32;34151;-68
2022/01/21 11:16:22;;;;;;;0.40;0.40;;;;;;;1.04;53.25;100480.31;4362691;32;33649;-70
2022/01/21 11:19:12;;;;;;;7.75;2.95;;;;;;;1.30;52.80;100477.41;4363222;32;34384;-71
2022/01/21 11:21:45;;;;;;;6.43;2.60;;;;;;;1.69;51.71;100457.91;4360476;32;34566;-72
2022/01/21 11:24:15;;;;;;;5.47;2.90;;;;;;;1.69;52.17;100457.09;4362568;32;34230;-73
2022/01/21 11:26:43;;;;;;;5.50;2.83;;;;;;;1.64;51.48;100455.75;4362950;32;34297;-75
2022/01/21 11:29:11;;;;;;;5.07;2.87;;;;;;;1.14;53.97;100467.56;4363103;32;33657;-74
2022/01/21 11:31:39;;;;;;;4.95;2.50;;;;;;;1.25;53.38;100449.50;4361574;32;33663;-76
2022/01/21 11:34:11;;;;;;;2.97;1.98;;;;;;;1.02;52.95;100453.75;4362008;32;34133;-75
2022/01/21 11:36:39;;;;;;;3.12;1.80;;;;;;;0.53;54.21;100429.72;4361357;32;35124;-69
2022/01/21 11:39:07;;;;;;;3.53;1.90;;;;;;;1.34;53.12;100433.31;4361520;32;33683;-70
2022/01/21 11:41:35;;;;;;;5.00;2.00;;;;;;;0.59;54.30;100426.38;4361311;32;35661;-71
2022/01/21 11:44:05;;;;;;;3.37;1.80;;;;;;;0.57;54.50;100412.38;4361261;32;33888;-70
2022/01/21 11:49:04;;;;;;;3.92;2.15;;;;;;;1.36;51.96;100407.22;4361145;32;33377;-71
2022/01/21 11:51:33;;;;;;;5.55;3.33;;;;;;;1.15;52.30;100389.06;4362218;32;33795;-70
2022/01/21 11:54:06;;;;;;;3.53;1.70;;;;;;;0.72;53.73;100385.00;4360822;32;34175;-74
2022/01/21 11:56:43;;;;;;;3.92;1.62;;;;;;;0.49;53.07;100368.81;4359844;32;34204;-77
2022/01/21 11:59:19;;;;;;;4.40;2.10;;;;;;;0.53;52.56;100376.31;4362277;32;34578;-75
2022/01/21 12:01:47;;;;;;;0.40;0.40;;;;;;;0.64;53.26;100393.00;4362426;32;33812;-71
2022/01/21 12:04:45;;;;;;;0.90;0.90;;;;;;;0.90;51.14;100366.91;4362153;32;34072;-73
2022/01/21 12:07:48;;;;;;;3.97;1.80;;;;;;;0.86;51.90;100376.28;4362167;32;34245;-72
2022/01/21 12:10:22;;;;;;;0.50;0.50;;;;;;;0.94;52.20;100348.72;4357245;32;34370;-70
2022/01/21 12:12:59;;;;;;;3.70;1.60;;;;;;;1.63;50.48;100362.31;4362186;32;34078;-70
2022/01/21 12:15:36;;;;;;;3.15;1.55;;;;;;;1.46;51.28;100358.06;4353545;32;34365;-68
2022/01/21 12:20:55;;;;;;;3.80;2.10;;;;;;;2.34;49.10;100359.50;4361978;32;33622;-70
2022/01/21 12:23:25;;;;;;;3.33;1.70;;;;;;;2.49;48.27;100362.22;4359949;32;34037;-69
2022/01/21 12:26:14;;;;;;;7.45;3.70;;;;;;;1.88;48.81;100360.34;4357377;32;33902;-71
2022/01/21 12:28:45;;;;;;;4.90;2.40;;;;;;;2.79;47.67;100344.34;4360477;32;34963;-67
2022/01/21 12:31:15;;;;;;;4.00;1.92;;;;;;;2.84;47.57;100340.09;4359256;32;34536;-70
2022/01/21 12:33:53;;;;;;;0.50;0.50;;;;;;;3.34;45.48;100345.72;4359816;32;33931;-77
2022/01/21 12:36:22;;;;;;;;;;;;;;;2.77;46.35;100338.34;4360700;32;33977;-75
2022/01/21 12:41:16;;;;;;;3.85;1.60;;;;;;;3.01;46.19;100345.28;4358942;32;33522;-72
2022/01/21 12:43:58;;;;;;;4.82;2.22;;;;;;;2.93;46.56;100345.37;4360124;32;33709;-70
2022/01/21 12:46:25;;;;;;;4.00;2.00;;;;;;;3.78;44.86;100352.00;4359805;32;34332;-71